Time;durP1;ratioP1;P1;durP2;ratioP2;P2;SDS_P1;SDS_P2;PMS_P1;PMS_P2;Temp;Humidity;BMP_temperature;BMP_pressure;BME280_temperature;BME280_humidity;BME280_pressure;Samples;Min_cycle;Max_cycle;Signal;HPM_P1;HPM_P2
2021/06/12 00:00:00;;;;;;;5.07;3.65;;;;;;;;;;353153;27;1062;-65
2021/06/12 00:00:17;;;;;;;8.45;4.00;;;;;;;;;;353257;27;1148;-67
2021/06/12 00:00:33;;;;;;;7.70;3.60;;;;;;;;;;350955;28;62976;-65
2021/06/12 00:00:45;;;;;;;5.28;3.00;;;;;;;;;;351096;28;64248;-68
2021/06/12 00:00:57;;;;;;;6.03;3.15;;;;;;;;;;353220;28;1405;-66
2021/06/12 00:01:10;;;;;;;5.90;3.42;;;;;;;;;;353102;28;1085;-65
2021/06/12 00:01:22;;;;;;;5.35;3.70;;;;;;;;;;353255;28;1314;-66
2021/06/12 00:01:34;;;;;;;5.53;3.65;;;;;;;;;;353343;27;1137;-66
2021/06/12 00:01:46;;;;;;;5.43;4.10;;;;;;;;;;353392;28;1881;-66
2021/06/12 00:01:59;;;;;;;5.43;4.07;;;;;;;;;;352101;28;1663;-65
2021/06/12 00:02:11;;;;;;;4.88;3.40;;;;;;;;;;353293;27;1160;-68
2021/06/12 00:02:24;;;;;;;5.75;2.80;;;;;;;;;;353215;28;1160;-66
2021/06/12 00:02:37;;;;;;;5.30;2.63;;;;;;;;;;352858;28;16771;-65
2021/06/12 00:02:50;;;;;;;3.70;2.60;;;;;;;;;;352920;28;1770;-70
2021/06/12 00:03:04;;;;;;;4.55;2.90;;;;;;;;;;350326;28;982;-66
2021/06/12 00:03:16;;;;;;;5.32;3.17;;;;;;;;;;349743;28;17080;-65
2021/06/12 00:03:29;;;;;;;6.53;3.03;;;;;;;;;;350449;28;1106;-65
2021/06/12 00:03:41;;;;;;;6.85;3.38;;;;;;;;;;350493;28;1090;-66
2021/06/12 00:03:53;;;;;;;7.18;4.20;;;;;;;;;;351726;28;1130;-65
2021/06/12 00:04:05;;;;;;;6.88;4.60;;;;;;;;;;351846;28;1120;-67
2021/06/12 00:04:17;;;;;;;7.63;4.80;;;;;;;;;;351880;28;1097;-68
2021/06/12 00:04:29;;;;;;;6.93;4.72;;;;;;;;;;351959;28;1121;-66
2021/06/12 00:04:41;;;;;;;5.93;4.07;;;;;;;;;;351724;28;1120;-65
2021/06/12 00:04:54;;;;;;;5.32;3.10;;;;;;;;;;352233;28;1084;-65
2021/06/12 00:05:06;;;;;;;6.32;2.97;;;;;;;;;;351816;28;1271;-65
2021/06/12 00:05:19;;;;;;;6.75;3.13;;;;;;;;;;352035;28;1276;-74
2021/06/12 00:05:31;;;;;;;4.93;3.47;;;;;;;;;;351899;28;1095;-66
2021/06/12 00:05:43;;;;;;;5.65;3.78;;;;;;;;;;352057;28;1279;-66
2021/06/12 00:05:55;;;;;;;6.45;3.63;;;;;;;;;;351921;28;1092;-67
2021/06/12 00:06:07;;;;;;;6.25;3.53;;;;;;;;;;351828;28;1155;-66
2021/06/12 00:06:19;;;;;;;5.55;3.40;;;;;;;;;;351986;28;1099;-67
2021/06/12 00:06:32;;;;;;;5.20;3.17;;;;;;;;;;351958;28;1162;-65
2021/06/12 00:06:44;;;;;;;4.82;3.10;;;;;;;;;;352159;28;993;-69
2021/06/12 00:06:58;;;;;;;4.65;2.97;;;;;;;;;;351937;28;1049;-65
2021/06/12 00:07:10;;;;;;;6.80;3.72;;;;;;;;;;351390;28;16638;-66
2021/06/12 00:07:22;;;;;;;7.53;4.35;;;;;;;;;;350672;28;1684;-68
2021/06/12 00:07:34;;;;;;;6.43;4.15;;;;;;;;;;351747;28;1017;-65
2021/06/12 00:07:46;;;;;;;6.13;3.88;;;;;;;;;;351921;28;986;-65
2021/06/12 00:07:58;;;;;;;5.95;3.70;;;;;;;;;;351820;28;1430;-65
2021/06/12 00:08:11;;;;;;;5.78;3.75;;;;;;;;;;351696;28;1025;-66
2021/06/12 00:08:23;;;;;;;5.28;3.22;;;;;;;;;;351847;28;1113;-65
2021/06/12 00:08:35;;;;;;;5.60;3.25;;;;;;;;;;351755;28;1098;-66
2021/06/12 00:08:47;;;;;;;6.22;3.53;;;;;;;;;;351809;28;1210;-67
2021/06/12 00:08:59;;;;;;;6.78;3.97;;;;;;;;;;351854;28;1093;-67
2021/06/12 00:09:11;;;;;;;7.47;4.35;;;;;;;;;;352592;28;1160;-65
2021/06/12 00:09:24;;;;;;;6.55;4.22;;;;;;;;;;353376;28;1098;-67
2021/06/12 00:09:36;;;;;;;6.45;3.72;;;;;;;;;;353495;27;1167;-67
2021/06/12 00:09:48;;;;;;;7.47;3.70;;;;;;;;;;353415;27;1063;-66
2021/06/12 00:10:04;;;;;;;6.97;4.03;;;;;;;;;;353044;28;16058;-65
2021/06/12 00:10:21;;;;;;;5.57;3.72;;;;;;;;;;352687;28;17151;-66
2021/06/12 00:10:34;;;;;;;5.28;3.15;;;;;;;;;;350996;28;62976;-65
2021/06/12 00:10:46;;;;;;;5.28;3.40;;;;;;;;;;353254;27;1084;-66
2021/06/12 00:11:01;;;;;;;5.06;3.44;;;;;;;;;;353362;28;1206;-67
2021/06/12 00:11:13;;;;;;;5.68;3.50;;;;;;;;;;352614;28;17090;-71
2021/06/12 00:11:25;;;;;;;6.20;4.03;;;;;;;;;;353381;27;1071;-66
2021/06/12 00:11:37;;;;;;;6.07;4.40;;;;;;;;;;353486;27;1087;-67
2021/06/12 00:11:49;;;;;;;5.58;3.90;;;;;;;;;;353351;27;1998;-68
2021/06/12 00:12:02;;;;;;;5.22;3.35;;;;;;;;;;353636;27;1093;-66
2021/06/12 00:12:14;;;;;;;4.88;3.30;;;;;;;;;;353646;27;1363;-68
2021/06/12 00:12:26;;;;;;;4.28;3.15;;;;;;;;;;353144;27;1590;-66
2021/06/12 00:12:39;;;;;;;4.10;2.88;;;;;;;;;;352370;27;1613;-66
2021/06/12 00:12:51;;;;;;;4.70;3.10;;;;;;;;;;353894;27;1937;-66
2021/06/12 00:13:04;;;;;;;5.05;3.45;;;;;;;;;;353811;27;1092;-66
2021/06/12 00:13:16;;;;;;;4.65;3.20;;;;;;;;;;353553;27;1093;-66
2021/06/12 00:13:29;;;;;;;4.32;2.92;;;;;;;;;;353365;27;1153;-66
2021/06/12 00:13:41;;;;;;;4.07;2.83;;;;;;;;;;353553;27;1090;-66
2021/06/12 00:13:54;;;;;;;3.63;2.78;;;;;;;;;;353417;27;1189;-67
2021/06/12 00:14:06;;;;;;;3.00;2.70;;;;;;;;;;353730;27;985;-66
2021/06/12 00:14:18;;;;;;;3.15;2.60;;;;;;;;;;353658;27;1092;-74
2021/06/12 00:14:30;;;;;;;4.35;3.08;;;;;;;;;;353331;27;1117;-66
2021/06/12 00:14:42;;;;;;;6.15;3.22;;;;;;;;;;353408;27;1002;-66
2021/06/12 00:14:54;;;;;;;5.93;3.15;;;;;;;;;;353501;27;1156;-66
2021/06/12 00:15:08;;;;;;;4.40;2.50;;;;;;;;;;352224;28;1056;-67
2021/06/12 00:15:21;;;;;;;4.07;2.40;;;;;;;;;;352593;27;18256;-66
2021/06/12 00:15:33;;;;;;;4.22;2.47;;;;;;;;;;353445;27;1165;-66
2021/06/12 00:15:45;;;;;;;4.57;3.00;;;;;;;;;;353670;27;1492;-65
2021/06/12 00:15:58;;;;;;;4.88;3.25;;;;;;;;;;353382;27;1227;-68
2021/06/12 00:16:10;;;;;;;4.50;2.97;;;;;;;;;;353609;27;1041;-66
2021/06/12 00:16:22;;;;;;;4.03;2.63;;;;;;;;;;353454;27;1113;-66
2021/06/12 00:16:34;;;;;;;3.42;2.30;;;;;;;;;;353506;27;1099;-66
2021/06/12 00:16:46;;;;;;;3.92;2.30;;;;;;;;;;353649;27;1183;-66
2021/06/12 00:16:58;;;;;;;4.13;2.42;;;;;;;;;;353645;27;1053;-67
2021/06/12 00:17:11;;;;;;;4.47;2.50;;;;;;;;;;353297;27;1080;-66
2021/06/12 00:17:23;;;;;;;3.83;2.42;;;;;;;;;;353498;27;1148;-66
2021/06/12 00:17:35;;;;;;;3.70;2.58;;;;;;;;;;353571;27;1917;-66
2021/06/12 00:17:47;;;;;;;3.40;2.53;;;;;;;;;;353444;27;1352;-66
2021/06/12 00:17:59;;;;;;;3.00;2.47;;;;;;;;;;353610;27;1063;-69
2021/06/12 00:18:12;;;;;;;3.15;2.50;;;;;;;;;;353408;27;1013;-74
2021/06/12 00:18:24;;;;;;;4.40;2.63;;;;;;;;;;353435;27;1065;-66
2021/06/12 00:18:36;;;;;;;4.95;2.65;;;;;;;;;;353427;27;1660;-65
2021/06/12 00:18:48;;;;;;;3.63;2.42;;;;;;;;;;353587;27;1032;-67
2021/06/12 00:19:00;;;;;;;3.67;2.05;;;;;;;;;;352018;28;1742;-67
2021/06/12 00:19:13;;;;;;;4.00;2.33;;;;;;;;;;351464;28;1060;-66
2021/06/12 00:19:25;;;;;;;3.85;2.55;;;;;;;;;;352123;28;1084;-66
2021/06/12 00:19:37;;;;;;;3.75;2.70;;;;;;;;;;352121;28;1065;-68
2021/06/12 00:19:49;;;;;;;3.63;2.70;;;;;;;;;;352125;28;1132;-66
2021/06/12 00:20:04;;;;;;;3.40;2.38;;;;;;;;;;352095;28;1160;-67
2021/06/12 00:20:17;;;;;;;2.78;2.20;;;;;;;;;;351478;28;15795;-68
2021/06/12 00:20:31;;;;;;;2.40;2.00;;;;;;;;;;351566;28;16682;-66
2021/06/12 00:20:43;;;;;;;2.50;1.83;;;;;;;;;;351311;28;16706;-66
2021/06/12 00:20:56;;;;;;;2.50;1.80;;;;;;;;;;352090;28;1115;-67
2021/06/12 00:21:09;;;;;;;2.40;1.85;;;;;;;;;;353575;27;1179;-67
2021/06/12 00:21:21;;;;;;;2.50;1.90;;;;;;;;;;353569;27;1137;-70
2021/06/12 00:21:36;;;;;;;2.45;1.90;;;;;;;;;;353501;27;1069;-69
2021/06/12 00:21:48;;;;;;;2.63;1.70;;;;;;;;;;352275;27;41253;-66
2021/06/12 00:22:01;;;;;;;3.00;1.80;;;;;;;;;;353477;27;986;-66
2021/06/12 00:22:13;;;;;;;3.70;1.80;;;;;;;;;;353517;27;1079;-67
2021/06/12 00:22:25;;;;;;;2.90;1.63;;;;;;;;;;353655;27;964;-68
2021/06/12 00:22:37;;;;;;;2.67;1.50;;;;;;;;;;353515;28;1051;-72
2021/06/12 00:22:49;;;;;;;2.75;1.55;;;;;;;;;;353567;27;1171;-65
2021/06/12 00:23:01;;;;;;;2.92;1.73;;;;;;;;;;353540;27;1045;-66
2021/06/12 00:23:14;;;;;;;2.22;1.90;;;;;;;;;;353157;27;1674;-66
2021/06/12 00:23:26;;;;;;;2.25;2.05;;;;;;;;;;352130;28;1098;-66
2021/06/12 00:23:38;;;;;;;2.22;1.95;;;;;;;;;;352254;28;1133;-65
2021/06/12 00:23:50;;;;;;;2.42;1.80;;;;;;;;;;351800;28;1094;-66
2021/06/12 00:24:06;;;;;;;2.95;1.80;;;;;;;;;;352129;28;1111;-67
2021/06/12 00:24:18;;;;;;;3.53;1.90;;;;;;;;;;350711;28;39609;-66
2021/06/12 00:24:30;;;;;;;3.08;1.85;;;;;;;;;;352144;28;1094;-66
2021/06/12 00:24:42;;;;;;;2.70;1.90;;;;;;;;;;352074;28;1168;-66
2021/06/12 00:24:54;;;;;;;2.63;1.80;;;;;;;;;;352095;28;1236;-66
2021/06/12 00:25:07;;;;;;;2.70;1.65;;;;;;;;;;352143;28;1101;-66
2021/06/12 00:25:28;;;;;;;3.97;1.75;;;;;;;;;;352226;28;1108;-66
2021/06/12 00:25:40;;;;;;;4.65;2.10;;;;;;;;;;349930;28;62301;-66
2021/06/12 00:25:52;;;;;;;2.94;1.70;;;;;;;;;;351963;28;1158;-65
2021/06/12 00:26:05;;;;;;;2.47;1.52;;;;;;;;;;351965;28;1084;-66
2021/06/12 00:26:17;;;;;;;2.05;1.40;;;;;;;;;;352487;28;1001;-67
2021/06/12 00:26:29;;;;;;;2.28;1.50;;;;;;;;;;352073;28;985;-67
2021/06/12 00:26:41;;;;;;;2.85;1.67;;;;;;;;;;352018;28;1197;-66
2021/06/12 00:26:53;;;;;;;2.28;1.58;;;;;;;;;;352350;28;1199;-65
2021/06/12 00:27:06;;;;;;;1.90;1.48;;;;;;;;;;352398;28;1089;-66
2021/06/12 00:27:18;;;;;;;1.92;1.34;;;;;;;;;;352358;28;1097;-65
2021/06/12 00:27:30;;;;;;;1.90;1.40;;;;;;;;;;352180;28;1124;-65
2021/06/12 00:27:43;;;;;;;1.85;1.40;;;;;;;;;;352241;28;1096;-67
2021/06/12 00:27:56;;;;;;;2.30;1.40;;;;;;;;;;352314;28;1060;-66
2021/06/12 00:28:09;;;;;;;2.35;1.27;;;;;;;;;;352365;28;1097;-69
2021/06/12 00:28:21;;;;;;;1.73;1.20;;;;;;;;;;352286;28;1001;-65
2021/06/12 00:28:33;;;;;;;1.65;1.30;;;;;;;;;;352283;28;1130;-65
2021/06/12 00:28:45;;;;;;;2.45;1.30;;;;;;;;;;352237;28;1023;-66
2021/06/12 00:28:57;;;;;;;2.92;1.25;;;;;;;;;;352370;28;1084;-66
2021/06/12 00:29:10;;;;;;;2.70;1.20;;;;;;;;;;352490;28;1049;-66
2021/06/12 00:29:22;;;;;;;3.42;1.50;;;;;;;;;;352283;28;1097;-65
2021/06/12 00:29:34;;;;;;;3.40;1.50;;;;;;;;;;352282;28;1248;-67
2021/06/12 00:29:48;;;;;;;1.67;1.33;;;;;;;;;;352230;27;1453;-67
2021/06/12 00:30:00;;;;;;;1.30;1.20;;;;;;;;;;350987;28;40159;-66
2021/06/12 00:30:13;;;;;;;1.30;1.20;;;;;;;;;;352181;28;1144;-69
2021/06/12 00:30:25;;;;;;;1.20;1.10;;;;;;;;;;352281;28;986;-66
2021/06/12 00:30:37;;;;;;;1.23;1.00;;;;;;;;;;352316;28;1184;-66
2021/06/12 00:30:49;;;;;;;1.42;1.10;;;;;;;;;;352201;27;1107;-66
2021/06/12 00:31:02;;;;;;;1.67;1.20;;;;;;;;;;352083;28;1005;-66
2021/06/12 00:31:14;;;;;;;1.63;1.20;;;;;;;;;;351978;28;1087;-66
2021/06/12 00:31:26;;;;;;;2.22;1.23;;;;;;;;;;352146;28;1109;-66
2021/06/12 00:31:39;;;;;;;2.20;1.15;;;;;;;;;;352101;28;1005;-65
2021/06/12 00:31:51;;;;;;;1.73;1.10;;;;;;;;;;352049;28;1148;-66
2021/06/12 00:32:04;;;;;;;1.33;1.17;;;;;;;;;;350689;28;1309;-66
2021/06/12 00:32:16;;;;;;;2.35;1.50;;;;;;;;;;350562;28;1046;-68
2021/06/12 00:32:28;;;;;;;2.53;1.50;;;;;;;;;;350704;28;1055;-65
2021/06/12 00:32:40;;;;;;;2.33;1.38;;;;;;;;;;350694;28;1018;-66
2021/06/12 00:32:53;;;;;;;2.40;1.30;;;;;;;;;;350724;28;1029;-68
2021/06/12 00:33:05;;;;;;;2.05;1.27;;;;;;;;;;351674;28;1013;-67
2021/06/12 00:33:17;;;;;;;1.90;1.30;;;;;;;;;;352019;28;1307;-66
2021/06/12 00:33:30;;;;;;;2.03;1.38;;;;;;;;;;351939;28;1089;-67
2021/06/12 00:33:42;;;;;;;1.73;1.25;;;;;;;;;;352042;28;1729;-66
2021/06/12 00:33:54;;;;;;;1.70;1.30;;;;;;;;;;353364;27;1674;-72
2021/06/12 00:34:07;;;;;;;2.02;1.40;;;;;;;;;;352981;27;1680;-66
2021/06/12 00:34:19;;;;;;;2.80;1.33;;;;;;;;;;353570;27;1097;-66
2021/06/12 00:34:31;;;;;;;2.60;1.25;;;;;;;;;;353649;27;1092;-66
2021/06/12 00:34:43;;;;;;;1.70;1.20;;;;;;;;;;353571;27;1091;-68
2021/06/12 00:34:55;;;;;;;1.58;1.27;;;;;;;;;;353478;27;1219;-71
2021/06/12 00:35:10;;;;;;;1.60;1.30;;;;;;;;;;353574;27;1164;-69
2021/06/12 00:35:22;;;;;;;1.90;1.33;;;;;;;;;;352264;27;39721;-73
2021/06/12 00:35:34;;;;;;;2.67;1.40;;;;;;;;;;353429;27;1136;-67
2021/06/12 00:35:46;;;;;;;2.55;1.35;;;;;;;;;;353463;27;1072;-68
2021/06/12 00:35:59;;;;;;;2.33;1.20;;;;;;;;;;351799;28;1081;-69
2021/06/12 00:36:11;;;;;;;1.75;1.10;;;;;;;;;;350774;28;1120;-75
2021/06/12 00:36:23;;;;;;;1.35;1.10;;;;;;;;;;350770;28;1072;-71
2021/06/12 00:36:35;;;;;;;1.60;1.20;;;;;;;;;;350738;28;1172;-66
2021/06/12 00:36:47;;;;;;;1.95;1.33;;;;;;;;;;350474;28;1133;-68
2021/06/12 00:37:00;;;;;;;2.17;1.30;;;;;;;;;;350702;28;1163;-74
2021/06/12 00:37:12;;;;;;;2.47;1.20;;;;;;;;;;350725;28;1917;-66
2021/06/12 00:37:24;;;;;;;2.13;1.20;;;;;;;;;;350776;28;950;-73
2021/06/12 00:37:36;;;;;;;1.48;1.10;;;;;;;;;;350714;28;982;-67
2021/06/12 00:37:49;;;;;;;2.35;1.10;;;;;;;;;;350608;28;1183;-70
2021/06/12 00:38:01;;;;;;;2.53;1.10;;;;;;;;;;352074;28;1090;-71
2021/06/12 00:38:13;;;;;;;3.30;1.20;;;;;;;;;;352294;28;1073;-74
2021/06/12 00:38:25;;;;;;;2.53;1.27;;;;;;;;;;352286;28;1257;-74
2021/06/12 00:38:37;;;;;;;1.98;1.30;;;;;;;;;;352215;28;1087;-68
2021/06/12 00:38:50;;;;;;;1.50;1.10;;;;;;;;;;352297;28;1168;-70
2021/06/12 00:39:02;;;;;;;2.10;1.20;;;;;;;;;;352336;28;1245;-69
2021/06/12 00:39:14;;;;;;;2.50;1.23;;;;;;;;;;352240;28;1913;-74
2021/06/12 00:39:26;;;;;;;2.53;1.30;;;;;;;;;;352234;28;1066;-66
2021/06/12 00:39:38;;;;;;;2.33;1.23;;;;;;;;;;352171;28;1060;-66
2021/06/12 00:39:51;;;;;;;2.28;1.17;;;;;;;;;;352236;28;1093;-72
2021/06/12 00:40:04;;;;;;;2.10;1.20;;;;;;;;;;352109;28;1103;-69
2021/06/12 00:40:17;;;;;;;2.25;1.20;;;;;;;;;;351995;28;1167;-68
2021/06/12 00:40:29;;;;;;;1.88;1.05;;;;;;;;;;352135;28;1198;-70
2021/06/12 00:40:41;;;;;;;2.22;0.98;;;;;;;;;;352018;28;1934;-67
2021/06/12 00:40:53;;;;;;;2.13;1.00;;;;;;;;;;352130;28;1153;-68
2021/06/12 00:41:06;;;;;;;2.35;1.17;;;;;;;;;;352003;28;1306;-68
2021/06/12 00:41:19;;;;;;;2.28;1.10;;;;;;;;;;352105;28;1278;-72
2021/06/12 00:41:31;;;;;;;1.42;1.00;;;;;;;;;;351300;28;16703;-70
2021/06/12 00:41:43;;;;;;;1.63;1.10;;;;;;;;;;351995;28;1262;-67
2021/06/12 00:41:55;;;;;;;2.33;1.10;;;;;;;;;;352141;28;1110;-66
2021/06/12 00:42:08;;;;;;;2.22;1.00;;;;;;;;;;352105;28;1054;-69
2021/06/12 00:42:20;;;;;;;1.50;1.08;;;;;;;;;;350914;28;1105;-65
2021/06/12 00:42:32;;;;;;;1.63;1.20;;;;;;;;;;349231;28;1168;-70
2021/06/12 00:42:45;;;;;;;1.80;1.30;;;;;;;;;;349433;28;1321;-66
2021/06/12 00:42:57;;;;;;;1.67;1.23;;;;;;;;;;349154;28;1213;-68
2021/06/12 00:43:09;;;;;;;1.66;1.30;;;;;;;;;;349413;28;1366;-67
2021/06/12 00:43:21;;;;;;;1.90;1.27;;;;;;;;;;349079;28;1097;-66
2021/06/12 00:43:34;;;;;;;2.13;1.23;;;;;;;;;;349295;28;1067;-66
2021/06/12 00:43:46;;;;;;;2.13;1.20;;;;;;;;;;349133;28;991;-68
2021/06/12 00:43:58;;;;;;;2.17;1.20;;;;;;;;;;349228;28;1283;-66
2021/06/12 00:44:10;;;;;;;1.90;1.10;;;;;;;;;;349988;28;1389;-67
2021/06/12 00:44:22;;;;;;;1.85;1.08;;;;;;;;;;349986;28;1648;-74
2021/06/12 00:44:35;;;;;;;2.72;1.15;;;;;;;;;;351506;28;1666;-67
2021/06/12 00:44:47;;;;;;;2.85;1.20;;;;;;;;;;353514;27;1017;-66
2021/06/12 00:44:59;;;;;;;1.92;1.20;;;;;;;;;;353480;27;1182;-67
2021/06/12 00:45:18;;;;;;;1.98;1.13;;;;;;;;;;353462;27;1152;-67
2021/06/12 00:45:31;;;;;;;2.20;1.20;;;;;;;;;;349086;28;85490;-66
2021/06/12 00:45:46;;;;;;;3.10;1.23;;;;;;;;;;352185;28;1469;-65
2021/06/12 00:45:58;;;;;;;3.13;1.30;;;;;;;;;;350702;28;41271;-65
2021/06/12 00:46:11;;;;;;;1.90;1.23;;;;;;;;;;352012;28;1283;-66
2021/06/12 00:46:23;;;;;;;1.83;1.10;;;;;;;;;;352808;27;1097;-65
2021/06/12 00:46:35;;;;;;;2.50;1.10;;;;;;;;;;353524;27;1074;-67
2021/06/12 00:46:47;;;;;;;2.80;1.10;;;;;;;;;;353539;27;1152;-69
2021/06/12 00:46:59;;;;;;;2.63;1.05;;;;;;;;;;353464;27;1326;-65
2021/06/12 00:47:12;;;;;;;2.58;1.10;;;;;;;;;;352006;28;990;-72
2021/06/12 00:47:24;;;;;;;2.25;1.10;;;;;;;;;;352087;28;1091;-66
2021/06/12 00:47:36;;;;;;;3.30;1.30;;;;;;;;;;353323;27;1086;-68
2021/06/12 00:47:49;;;;;;;3.30;1.40;;;;;;;;;;353568;27;1082;-65
2021/06/12 00:48:02;;;;;;;2.20;1.17;;;;;;;;;;352820;27;18012;-65
2021/06/12 00:48:14;;;;;;;2.24;1.10;;;;;;;;;;353584;27;1277;-68
2021/06/12 00:48:27;;;;;;;3.03;1.23;;;;;;;;;;353573;27;1089;-71
2021/06/12 00:48:43;;;;;;;1.95;1.20;;;;;;;;;;353581;27;1120;-71
2021/06/12 00:48:55;;;;;;;1.30;1.20;;;;;;;;;;351226;27;63141;-66
2021/06/12 00:49:08;;;;;;;1.65;1.33;;;;;;;;;;353558;27;1198;-72
2021/06/12 00:49:20;;;;;;;1.80;1.30;;;;;;;;;;353773;27;1089;-67
2021/06/12 00:49:32;;;;;;;1.83;1.17;;;;;;;;;;354010;27;1171;-70
2021/06/12 00:49:45;;;;;;;1.50;1.08;;;;;;;;;;353625;27;1093;-66
2021/06/12 00:49:57;;;;;;;1.23;1.10;;;;;;;;;;353645;27;1168;-66
2021/06/12 00:50:09;;;;;;;1.25;1.15;;;;;;;;;;353567;27;959;-66
2021/06/12 00:50:23;;;;;;;1.20;1.10;;;;;;;;;;353651;27;1029;-73
2021/06/12 00:50:35;;;;;;;1.30;1.15;;;;;;;;;;353639;27;1108;-66
2021/06/12 00:50:50;;;;;;;1.70;1.20;;;;;;;;;;351078;27;63762;-69
2021/06/12 00:51:03;;;;;;;1.65;1.15;;;;;;;;;;353535;27;1070;-66
2021/06/12 00:51:15;;;;;;;1.35;1.10;;;;;;;;;;352139;28;1171;-70
2021/06/12 00:51:27;;;;;;;1.45;1.10;;;;;;;;;;350788;28;1173;-68
2021/06/12 00:51:40;;;;;;;1.90;1.20;;;;;;;;;;350684;28;1101;-66
2021/06/12 00:51:52;;;;;;;1.90;1.33;;;;;;;;;;350457;28;2030;-66
2021/06/12 00:52:04;;;;;;;1.67;1.20;;;;;;;;;;350615;28;1093;-66
2021/06/12 00:52:16;;;;;;;1.67;1.20;;;;;;;;;;350834;28;1094;-66
2021/06/12 00:52:28;;;;;;;1.35;1.00;;;;;;;;;;352044;28;1103;-65
2021/06/12 00:52:41;;;;;;;1.42;0.95;;;;;;;;;;350680;28;1084;-71
2021/06/12 00:52:53;;;;;;;1.40;0.90;;;;;;;;;;350659;28;1164;-66
2021/06/12 00:53:05;;;;;;;1.73;1.05;;;;;;;;;;350546;28;1066;-66
2021/06/12 00:53:19;;;;;;;2.30;1.20;;;;;;;;;;351531;28;1212;-71
2021/06/12 00:53:37;;;;;;;2.38;1.30;;;;;;;;;;352578;27;17089;-67
2021/06/12 00:53:49;;;;;;;1.25;0.98;;;;;;;;;;351207;27;63966;-67
2021/06/12 00:54:01;;;;;;;1.70;1.08;;;;;;;;;;353903;27;1093;-69
2021/06/12 00:54:14;;;;;;;1.65;1.10;;;;;;;;;;353509;27;1033;-66
2021/06/12 00:54:26;;;;;;;1.38;1.10;;;;;;;;;;353534;27;1164;-73
2021/06/12 00:54:38;;;;;;;1.60;1.10;;;;;;;;;;353437;27;1145;-67
2021/06/12 00:54:50;;;;;;;1.52;1.10;;;;;;;;;;353149;27;1115;-66
2021/06/12 00:55:02;;;;;;;1.20;1.05;;;;;;;;;;352897;27;1639;-71
2021/06/12 00:55:15;;;;;;;1.10;1.00;;;;;;;;;;352175;27;1658;-67
2021/06/12 00:55:28;;;;;;;1.80;1.00;;;;;;;;;;353355;27;1199;-66
2021/06/12 00:55:40;;;;;;;1.98;1.00;;;;;;;;;;353515;27;1160;-67
2021/06/12 00:55:53;;;;;;;1.80;1.00;;;;;;;;;;353551;27;1171;-66
2021/06/12 00:56:07;;;;;;;1.70;1.00;;;;;;;;;;353564;27;1210;-71
2021/06/12 00:56:19;;;;;;;1.73;1.13;;;;;;;;;;352879;27;18039;-66
2021/06/12 00:56:32;;;;;;;1.70;1.10;;;;;;;;;;353385;27;1089;-69
2021/06/12 00:56:44;;;;;;;1.77;1.10;;;;;;;;;;353371;27;1078;-66
2021/06/12 00:56:57;;;;;;;1.60;1.00;;;;;;;;;;352216;28;1095;-70
2021/06/12 00:57:09;;;;;;;1.20;1.10;;;;;;;;;;352005;28;1257;-67
2021/06/12 00:57:21;;;;;;;1.40;1.05;;;;;;;;;;351932;28;1102;-67
2021/06/12 00:57:34;;;;;;;1.38;1.10;;;;;;;;;;351930;28;1080;-66
2021/06/12 00:57:47;;;;;;;1.40;1.10;;;;;;;;;;352034;28;1176;-65
2021/06/12 00:57:59;;;;;;;1.82;1.10;;;;;;;;;;351996;28;1181;-66
2021/06/12 00:58:12;;;;;;;1.67;1.00;;;;;;;;;;352043;28;1061;-68
2021/06/12 00:58:25;;;;;;;1.10;1.00;;;;;;;;;;352114;28;1180;-66
2021/06/12 00:58:42;;;;;;;1.10;0.90;;;;;;;;;;352094;28;1204;-68
2021/06/12 00:58:54;;;;;;;2.17;1.00;;;;;;;;;;350489;27;87010;-66
2021/06/12 00:59:26;;;;;;;1.58;1.35;;;;;;;;;;351400;27;63198;-66
2021/06/12 00:59:38;;;;;;;2.10;1.27;;;;;;;;;;353659;27;1066;-69
2021/06/12 00:59:50;;;;;;;1.92;1.15;;;;;;;;;;353662;27;1175;-69
2021/06/12 01:00:06;;;;;;;1.30;1.00;;;;;;;;;;353512;27;1109;-66
2021/06/12 01:00:19;;;;;;;1.50;0.95;;;;;;;;;;351896;27;41190;-74
2021/06/12 01:00:31;;;;;;;1.36;0.96;;;;;;;;;;353321;27;1159;-67
2021/06/12 01:00:44;;;;;;;1.30;1.20;;;;;;;;;;353292;27;2022;-66
2021/06/12 01:00:56;;;;;;;1.48;1.20;;;;;;;;;;353378;27;1025;-68
2021/06/12 01:01:10;;;;;;;1.50;1.05;;;;;;;;;;352077;28;1107;-67
2021/06/12 01:01:22;;;;;;;1.95;1.10;;;;;;;;;;352219;28;1168;-67
2021/06/12 01:01:34;;;;;;;2.38;1.02;;;;;;;;;;352004;28;1377;-66
2021/06/12 01:01:46;;;;;;;2.35;1.00;;;;;;;;;;352270;28;1108;-67
2021/06/12 01:01:59;;;;;;;2.35;1.10;;;;;;;;;;352078;28;973;-65
2021/06/12 01:02:11;;;;;;;2.17;1.20;;;;;;;;;;353483;27;1045;-66
2021/06/12 01:02:23;;;;;;;1.65;1.00;;;;;;;;;;353616;27;1128;-67
2021/06/12 01:02:36;;;;;;;1.38;0.98;;;;;;;;;;352187;28;1030;-67
2021/06/12 01:02:48;;;;;;;1.50;1.05;;;;;;;;;;352141;28;1164;-68
2021/06/12 01:03:00;;;;;;;2.08;1.05;;;;;;;;;;352038;28;1089;-69
2021/06/12 01:03:13;;;;;;;2.40;1.00;;;;;;;;;;353232;27;1172;-66
2021/06/12 01:03:27;;;;;;;1.83;1.00;;;;;;;;;;353502;27;1063;-66
2021/06/12 01:03:40;;;;;;;2.00;1.10;;;;;;;;;;352792;27;16709;-66
2021/06/12 01:03:52;;;;;;;2.20;1.20;;;;;;;;;;353436;27;1053;-67
2021/06/12 01:04:05;;;;;;;1.60;1.20;;;;;;;;;;353461;27;1089;-67
2021/06/12 01:04:17;;;;;;;1.30;1.20;;;;;;;;;;353474;27;1098;-65
2021/06/12 01:04:29;;;;;;;1.33;1.10;;;;;;;;;;353488;27;1683;-68
2021/06/12 01:04:42;;;;;;;2.38;1.15;;;;;;;;;;353573;27;1101;-66
2021/06/12 01:04:54;;;;;;;2.25;1.08;;;;;;;;;;353384;27;1356;-71
2021/06/12 01:05:07;;;;;;;1.75;1.10;;;;;;;;;;353627;27;1105;-68
2021/06/12 01:05:21;;;;;;;2.10;1.20;;;;;;;;;;353059;27;17303;-69
2021/06/12 01:05:33;;;;;;;1.90;1.15;;;;;;;;;;352972;27;16694;-66
2021/06/12 01:05:45;;;;;;;2.13;1.10;;;;;;;;;;352552;27;1682;-66
2021/06/12 01:05:58;;;;;;;1.98;1.10;;;;;;;;;;352906;27;1666;-70
2021/06/12 01:06:10;;;;;;;2.02;1.20;;;;;;;;;;353570;27;1105;-67
2021/06/12 01:06:22;;;;;;;1.25;1.10;;;;;;;;;;353336;27;1045;-66
2021/06/12 01:06:34;;;;;;;1.20;1.10;;;;;;;;;;353607;27;1141;-67
2021/06/12 01:06:50;;;;;;;1.80;1.10;;;;;;;;;;353527;27;1078;-67
2021/06/12 01:07:02;;;;;;;2.20;1.10;;;;;;;;;;351650;27;62829;-69
2021/06/12 01:07:14;;;;;;;1.85;1.20;;;;;;;;;;353816;27;974;-69
2021/06/12 01:07:26;;;;;;;1.60;1.20;;;;;;;;;;353602;27;1401;-68
2021/06/12 01:07:39;;;;;;;1.65;1.17;;;;;;;;;;353219;27;1648;-67
2021/06/12 01:07:51;;;;;;;1.60;1.15;;;;;;;;;;352172;28;1154;-68
2021/06/12 01:08:04;;;;;;;1.85;1.30;;;;;;;;;;351904;28;1136;-69
2021/06/12 01:08:16;;;;;;;2.70;1.30;;;;;;;;;;350675;28;1097;-67
2021/06/12 01:08:28;;;;;;;2.42;1.10;;;;;;;;;;350747;28;1301;-69
2021/06/12 01:08:43;;;;;;;3.67;1.10;;;;;;;;;;350665;28;959;-66
2021/06/12 01:08:58;;;;;;;3.45;1.30;;;;;;;;;;348444;28;61170;-67
2021/06/12 01:09:10;;;;;;;2.28;1.40;;;;;;;;;;349401;28;1125;-69
2021/06/12 01:09:22;;;;;;;1.80;1.30;;;;;;;;;;347882;28;1120;-69
2021/06/12 01:09:35;;;;;;;1.58;1.20;;;;;;;;;;347812;28;995;-68
2021/06/12 01:09:47;;;;;;;1.80;1.20;;;;;;;;;;347920;28;1173;-67
2021/06/12 01:09:59;;;;;;;2.40;1.10;;;;;;;;;;349381;28;1156;-67
2021/06/12 01:10:12;;;;;;;2.67;1.05;;;;;;;;;;349104;28;1058;-66
2021/06/12 01:10:24;;;;;;;1.83;1.10;;;;;;;;;;349185;28;1082;-66
2021/06/12 01:10:37;;;;;;;1.40;1.10;;;;;;;;;;349271;28;1092;-68
2021/06/12 01:10:49;;;;;;;1.58;1.02;;;;;;;;;;349262;28;1371;-68
2021/06/12 01:11:02;;;;;;;1.80;1.10;;;;;;;;;;349331;28;1099;-70
2021/06/12 01:11:15;;;;;;;1.60;1.10;;;;;;;;;;350367;28;1077;-66
2021/06/12 01:11:27;;;;;;;1.27;1.00;;;;;;;;;;352540;27;16905;-67
2021/06/12 01:11:45;;;;;;;1.25;1.10;;;;;;;;;;352448;28;992;-66
2021/06/12 01:12:03;;;;;;;2.00;1.20;;;;;;;;;;350304;27;63709;-69
2021/06/12 01:12:36;;;;;;;1.90;1.13;;;;;;;;;;350097;28;63538;-69
2021/06/12 01:12:53;;;;;;;1.92;1.40;;;;;;;;;;349888;28;63324;-69
2021/06/12 01:13:13;;;;;;;1.83;1.30;;;;;;;;;;349405;28;86676;-70
2021/06/12 01:13:25;;;;;;;2.38;1.20;;;;;;;;;;350071;28;63398;-66
2021/06/12 01:13:55;;;;;;;2.10;1.23;;;;;;;;;;352161;28;975;-67
2021/06/12 01:14:10;;;;;;;1.45;1.20;;;;;;;;;;350185;27;64356;-67
2021/06/12 01:14:24;;;;;;;1.13;1.02;;;;;;;;;;351743;27;17173;-67
2021/06/12 01:14:40;;;;;;;1.27;1.02;;;;;;;;;;351842;27;16711;-66
2021/06/12 01:14:56;;;;;;;2.60;1.25;;;;;;;;;;352808;27;64149;-71
2021/06/12 01:15:10;;;;;;;2.40;1.30;;;;;;;;;;350442;27;86736;-70
2021/06/12 01:15:24;;;;;;;2.38;1.20;;;;;;;;;;353178;27;1444;-71
2021/06/12 01:15:43;;;;;;;2.60;1.10;;;;;;;;;;353013;27;17158;-69
2021/06/12 01:15:58;;;;;;;1.25;1.00;;;;;;;;;;351385;27;63593;-70
2021/06/12 01:16:16;;;;;;;1.40;1.00;;;;;;;;;;351250;27;63262;-66
2021/06/12 01:16:38;;;;;;;1.55;0.90;;;;;;;;;;349868;28;62850;-65
2021/06/12 01:16:53;;;;;;;1.65;1.10;;;;;;;;;;349784;28;63763;-66
2021/06/12 01:17:15;;;;;;;2.00;1.13;;;;;;;;;;350765;28;40141;-67
2021/06/12 01:17:27;;;;;;;1.50;1.00;;;;;;;;;;351236;27;63374;-74
2021/06/12 01:17:53;;;;;;;1.63;1.00;;;;;;;;;;353436;27;1038;-68
2021/06/12 01:18:08;;;;;;;3.10;1.15;;;;;;;;;;351291;27;63226;-66
2021/06/12 01:18:24;;;;;;;2.60;1.10;;;;;;;;;;352241;27;40310;-67
2021/06/12 01:18:37;;;;;;;1.42;1.00;;;;;;;;;;351594;27;63125;-70
2021/06/12 01:18:52;;;;;;;1.30;1.10;;;;;;;;;;353566;27;1072;-69
2021/06/12 01:19:24;;;;;;;1.85;1.00;;;;;;;;;;353050;27;18105;-66
2021/06/12 01:19:54;;;;;;;1.25;0.95;;;;;;;;;;351264;27;63509;-69
2021/06/12 01:20:06;;;;;;;1.30;0.90;;;;;;;;;;351308;27;64304;-69
2021/06/12 01:20:39;;;;;;;1.52;1.00;;;;;;;;;;353406;27;1969;-66
2021/06/12 01:21:11;;;;;;;1.40;1.00;;;;;;;;;;346944;28;64575;-68
2021/06/12 01:21:23;;;;;;;2.05;1.10;;;;;;;;;;347014;28;64772;-67